Time;durP1;ratioP1;P1;durP2;ratioP2;P2;SDS_P1;SDS_P2;PMS_P1;PMS_P2;Temp;Humidity;BMP_temperature;BMP_pressure;BME280_temperature;BME280_humidity;BME280_pressure;Samples;Min_cycle;Max_cycle;Signal;HPM_P1;HPM_P2
2023/04/11 00:00:00;;;;;;;1.35;0.63;;;;;;;5.34;61.19;94933.53;5023325;28;20083;-66
2023/04/11 00:02:26;;;;;;;1.23;0.63;;;;;;;4.89;60.03;94953.97;5023850;28;20607;-65
2023/04/11 00:04:54;;;;;;;4.80;0.80;;;;;;;4.61;58.84;94954.16;5026909;28;20053;-66
2023/04/11 00:07:22;;;;;;;2.53;0.80;;;;;;;4.50;62.21;94955.28;5028522;28;20051;-66
2023/04/11 00:09:49;;;;;;;0.93;0.57;;;;;;;4.14;64.26;94958.81;5035701;28;20291;-66
2023/04/11 00:12:14;;;;;;;2.50;0.80;;;;;;;3.83;65.14;94966.31;5032357;28;20519;-65
2023/04/11 00:14:44;;;;;;;2.42;0.95;;;;;;;4.12;64.25;94962.59;5030928;28;20441;-66
2023/04/11 00:17:11;;;;;;;7.00;1.15;;;;;;;3.53;65.16;94979.69;5029431;28;20033;-65
2023/04/11 00:19:37;;;;;;;4.07;1.00;;;;;;;3.20;65.23;94974.06;5030340;28;20501;-66
2023/04/11 00:22:03;;;;;;;1.05;0.88;;;;;;;2.99;63.10;94983.06;5021611;28;20437;-66
2023/04/11 00:24:29;;;;;;;1.30;0.70;;;;;;;3.33;66.88;94953.47;5021930;28;20029;-65
2023/04/11 00:26:55;;;;;;;4.00;0.75;;;;;;;2.54;67.34;94943.38;5026122;28;20094;-66
2023/04/11 00:29:21;;;;;;;1.02;0.57;;;;;;;2.05;68.09;94933.00;5027292;28;20043;-66
2023/04/11 00:31:46;;;;;;;1.13;0.80;;;;;;;2.76;64.41;94930.84;5029090;28;20450;-66
2023/04/11 00:34:11;;;;;;;3.10;1.00;;;;;;;2.53;63.27;94939.09;5027939;28;20521;-66
2023/04/11 00:36:40;;;;;;;2.30;0.60;;;;;;;3.60;62.71;94914.13;5026810;28;20036;-66
2023/04/11 00:39:07;;;;;;;3.50;1.00;;;;;;;2.95;62.02;94944.84;5024061;28;20335;-65
2023/04/11 00:41:35;;;;;;;2.60;0.68;;;;;;;3.29;63.40;94934.56;5031971;28;20478;-66
2023/04/11 00:44:01;;;;;;;0.80;0.70;;;;;;;2.98;63.67;94955.06;5033317;28;20378;-66
2023/04/11 00:46:26;;;;;;;2.90;0.80;;;;;;;3.09;63.16;94951.44;5036053;28;20041;-66
2023/04/11 00:48:52;;;;;;;1.67;0.60;;;;;;;3.42;62.19;94949.97;5032450;28;20039;-66
2023/04/11 00:51:17;;;;;;;1.27;0.70;;;;;;;3.60;62.08;94929.94;5023684;28;20509;-65
2023/04/11 00:53:44;;;;;;;1.10;0.77;;;;;;;3.31;59.30;94937.03;5022891;28;20140;-66
2023/04/11 00:56:10;;;;;;;2.05;0.93;;;;;;;3.39;61.79;94938.91;5022466;28;20055;-67
2023/04/11 00:58:36;;;;;;;0.80;0.68;;;;;;;3.52;61.05;94944.66;5026261;28;20561;-66
2023/04/11 01:01:07;;;;;;;3.58;1.13;;;;;;;2.90;62.73;94950.56;5019522;28;20025;-73
2023/04/11 01:03:44;;;;;;;6.97;1.25;;;;;;;3.02;64.16;94954.66;5038078;22;20053;-63
2023/04/11 01:06:10;;;;;;;1.35;0.90;;;;;;;2.33;66.22;94952.31;5038951;28;20119;-63
2023/04/11 01:08:35;;;;;;;2.55;0.88;;;;;;;3.06;64.33;94942.00;5038148;28;20043;-64
2023/04/11 01:11:01;;;;;;;1.80;1.10;;;;;;;3.10;64.37;94924.16;5021007;28;20512;-64
2023/04/11 01:13:28;;;;;;;2.33;1.00;;;;;;;3.03;64.57;94922.09;5037658;28;20242;-63
2023/04/11 01:15:54;;;;;;;2.63;0.88;;;;;;;3.14;64.48;94917.63;5036435;28;20325;-64
2023/04/11 01:18:19;;;;;;;3.88;1.15;;;;;;;3.07;63.53;94913.91;5037661;28;20467;-64
2023/04/11 01:20:44;;;;;;;2.05;1.10;;;;;;;3.37;61.38;94915.38;5039377;28;20091;-63
2023/04/11 01:23:10;;;;;;;2.67;1.10;;;;;;;3.80;62.08;94901.59;5036468;28;20033;-64
2023/04/11 01:25:35;;;;;;;3.42;0.90;;;;;;;3.90;61.86;94878.66;5037545;28;20059;-64
2023/04/11 01:28:02;;;;;;;3.72;1.27;;;;;;;4.17;60.06;94870.75;5037978;28;20037;-64
2023/04/11 01:30:27;;;;;;;1.88;1.02;;;;;;;3.91;59.68;94872.41;5038745;28;20665;-64
2023/04/11 01:32:52;;;;;;;1.10;1.00;;;;;;;4.31;59.23;94871.97;5039322;28;20033;-64
2023/04/11 01:35:18;;;;;;;1.02;0.80;;;;;;;4.45;59.01;94867.91;5038824;28;20029;-64
2023/04/11 01:37:43;;;;;;;1.65;0.80;;;;;;;4.45;58.76;94874.03;5038546;28;20039;-64
2023/04/11 01:40:09;;;;;;;3.85;1.05;;;;;;;4.49;59.13;94878.97;5037530;28;20515;-64
2023/04/11 01:42:35;;;;;;;3.45;1.73;;;;;;;4.57;59.08;94879.84;5039200;28;20400;-63
2023/04/11 01:45:01;;;;;;;1.50;0.98;;;;;;;4.57;58.30;94887.75;5039472;28;20509;-64
2023/04/11 01:47:27;;;;;;;4.60;1.20;;;;;;;4.49;58.85;94898.25;5042085;28;20156;-63
2023/04/11 01:49:52;;;;;;;3.42;0.95;;;;;;;3.79;61.27;94913.97;5042689;28;20036;-64
2023/04/11 01:52:20;;;;;;;1.30;1.00;;;;;;;3.78;61.26;94930.72;5043085;28;20047;-63
2023/04/11 01:54:46;;;;;;;2.93;1.00;;;;;;;3.85;61.49;94927.50;5042107;28;20892;-63
2023/04/11 01:57:11;;;;;;;2.15;0.98;;;;;;;3.67;61.95;94921.25;5042674;28;20028;-63
2023/04/11 01:59:36;;;;;;;2.78;1.15;;;;;;;3.66;61.78;94903.81;5042065;28;20428;-64
2023/04/11 02:02:02;;;;;;;4.00;1.10;;;;;;;4.35;60.28;94893.56;5040017;28;20543;-64
2023/04/11 02:04:27;;;;;;;2.35;1.20;;;;;;;4.38;59.00;94896.72;5042673;28;20665;-64
2023/04/11 02:06:53;;;;;;;4.85;1.30;;;;;;;4.29;60.59;94889.75;5041891;28;20128;-63
2023/04/11 02:09:21;;;;;;;5.68;1.65;;;;;;;3.97;60.23;94899.94;5041821;28;20037;-64
2023/04/11 02:11:46;;;;;;;3.57;1.00;;;;;;;4.54;59.69;94906.53;5041175;28;20069;-64
2023/04/11 02:14:13;;;;;;;2.75;1.20;;;;;;;4.31;60.28;94917.59;5041692;28;20106;-64
2023/04/11 02:16:54;;;;;;;2.38;1.15;;;;;;;3.14;61.90;94923.69;5040019;28;20033;-64
2023/04/11 02:19:21;;;;;;;2.25;1.10;;;;;;;4.31;59.81;94935.22;5042158;28;20523;-64
2023/04/11 02:21:46;;;;;;;2.88;1.05;;;;;;;3.89;60.08;94921.78;5041319;28;20097;-63
2023/04/11 02:24:11;;;;;;;2.33;1.17;;;;;;;4.11;58.94;94913.53;5041910;28;20041;-64
2023/04/11 02:26:39;;;;;;;3.25;1.00;;;;;;;3.27;63.92;94920.69;5039972;28;20071;-63
2023/04/11 02:29:04;;;;;;;4.03;1.42;;;;;;;4.12;61.31;94900.19;5038996;28;20032;-64
2023/04/11 02:31:30;;;;;;;3.10;1.10;;;;;;;4.91;58.39;94901.91;5041851;28;20070;-64
2023/04/11 02:33:56;;;;;;;4.10;1.45;;;;;;;4.38;59.58;94907.25;5041622;28;20073;-63
2023/04/11 02:36:21;;;;;;;2.08;1.02;;;;;;;4.35;59.33;94920.75;5041720;28;20056;-64
2023/04/11 02:38:47;;;;;;;3.92;1.45;;;;;;;4.20;61.02;94915.22;5041708;28;20033;-64
2023/04/11 02:41:15;;;;;;;2.63;1.13;;;;;;;4.31;60.44;94906.22;5041605;28;20051;-64
2023/04/11 02:43:40;;;;;;;3.60;1.23;;;;;;;4.04;60.42;94926.47;5040343;28;20033;-64
2023/04/11 02:46:06;;;;;;;2.85;1.08;;;;;;;3.72;61.42;94912.09;5041318;28;20063;-64
2023/04/11 02:48:31;;;;;;;3.78;1.42;;;;;;;3.92;61.11;94913.53;5041422;28;20036;-64
2023/04/11 02:50:57;;;;;;;2.13;1.33;;;;;;;4.14;60.32;94927.22;5040920;28;20527;-64
2023/04/11 02:53:22;;;;;;;3.95;1.25;;;;;;;3.20;63.48;94926.72;5040803;28;20041;-63
2023/04/11 02:55:48;;;;;;;1.88;1.02;;;;;;;3.24;62.19;94928.06;5039372;28;20127;-64
2023/04/11 02:58:16;;;;;;;3.90;1.40;;;;;;;3.42;62.11;94925.44;5040665;28;20037;-63
2023/04/11 03:00:45;;;;;;;2.15;0.93;;;;;;;3.30;62.37;94925.66;5038798;28;20815;-64
2023/04/11 03:03:10;;;;;;;3.33;1.17;;;;;;;3.38;63.17;94932.84;5037686;28;20079;-64
2023/04/11 03:05:36;;;;;;;4.20;1.40;;;;;;;3.75;61.36;94927.59;5040530;28;20320;-64
2023/04/11 03:08:02;;;;;;;5.03;0.85;;;;;;;3.64;60.67;94934.72;5040845;28;20036;-64
2023/04/11 03:10:27;;;;;;;3.75;1.63;;;;;;;2.52;63.67;94947.97;5040361;28;20044;-63
2023/04/11 03:12:52;;;;;;;3.03;1.23;;;;;;;2.77;62.97;94950.91;5040662;28;20060;-64
2023/04/11 03:15:18;;;;;;;3.60;1.13;;;;;;;2.96;63.01;94946.53;5039097;28;20054;-64
2023/04/11 03:17:43;;;;;;;3.22;1.20;;;;;;;2.79;62.73;94933.16;5040691;28;20323;-64
2023/04/11 03:20:12;;;;;;;5.70;1.70;;;;;;;3.23;61.79;94934.31;5040963;28;20036;-64
2023/04/11 03:22:38;;;;;;;;;;;;;;;2.31;63.76;94935.84;5041181;28;20475;-64
2023/04/11 03:25:07;;;;;;;1.20;1.00;;;;;;;2.81;62.98;94939.13;5040828;28;19939;-64
2023/04/11 03:27:32;;;;;;;1.55;0.95;;;;;;;2.93;63.18;94937.13;5040449;28;20045;-64
2023/04/11 03:29:57;;;;;;;2.15;1.05;;;;;;;3.03;63.17;94929.19;5040440;28;20123;-64
2023/04/11 03:32:23;;;;;;;4.93;1.17;;;;;;;2.43;64.31;94927.78;5040511;28;20400;-64
2023/04/11 03:34:49;;;;;;;5.20;1.58;;;;;;;2.67;63.40;94931.69;5040031;28;20082;-64
2023/04/11 03:37:15;;;;;;;5.95;1.73;;;;;;;2.36;64.66;94931.00;5040833;28;20052;-63
2023/04/11 03:39:40;;;;;;;2.83;1.55;;;;;;;2.67;64.15;94934.34;5038715;28;20536;-63
2023/04/11 03:42:05;;;;;;;4.68;1.50;;;;;;;1.96;65.18;94939.94;5040048;28;20090;-64
2023/04/11 03:44:31;;;;;;;3.78;1.67;;;;;;;1.63;65.71;94937.59;5040594;28;20081;-64
2023/04/11 03:46:56;;;;;;;4.18;1.60;;;;;;;1.85;65.37;94931.25;5039787;28;20088;-63
2023/04/11 03:49:21;;;;;;;5.47;1.67;;;;;;;1.79;64.37;94957.22;5040179;28;20086;-64
2023/04/11 03:51:47;;;;;;;7.90;2.38;;;;;;;0.61;67.64;94949.97;5040523;28;20411;-64
2023/04/11 03:54:12;;;;;;;11.63;2.45;;;;;;;0.54;68.73;94947.88;5038359;28;20041;-64
2023/04/11 03:56:38;;;;;;;8.77;2.38;;;;;;;0.26;69.81;94950.25;5039935;28;20049;-64
2023/04/11 03:59:03;;;;;;;9.13;2.15;;;;;;;0.18;70.04;94963.16;5039235;28;20511;-64
2023/04/11 04:01:29;;;;;;;8.48;2.17;;;;;;;0.23;70.33;94963.59;5035661;28;20085;-64
2023/04/11 04:03:54;;;;;;;7.93;2.15;;;;;;;0.18;69.88;94957.91;5039346;28;20303;-64
2023/04/11 04:06:20;;;;;;;8.85;1.98;;;;;;;0.62;69.10;94954.25;5039226;28;20499;-64
2023/04/11 04:08:45;;;;;;;8.93;2.58;;;;;;;-0.09;70.94;94951.41;5040052;28;20070;-64
2023/04/11 04:11:11;;;;;;;8.68;2.30;;;;;;;-0.01;70.77;94959.44;5038963;28;20068;-64
2023/04/11 04:13:36;;;;;;;8.75;2.15;;;;;;;0.22;69.99;94969.78;5039446;28;20056;-64
2023/04/11 04:16:02;;;;;;;7.57;2.10;;;;;;;0.14;70.24;94972.22;5039287;28;20035;-64
2023/04/11 04:18:28;;;;;;;8.93;2.53;;;;;;;-0.09;71.11;94975.81;5039589;28;20287;-63
2023/04/11 04:20:53;;;;;;;8.55;2.58;;;;;;;-0.15;71.30;94978.91;5040136;28;20049;-63
2023/04/11 04:23:18;;;;;;;6.65;1.95;;;;;;;0.06;70.02;94971.06;5039283;28;20477;-64
2023/04/11 04:25:48;;;;;;;11.50;2.72;;;;;;;-0.19;69.47;94960.00;5039381;28;20080;-64
2023/04/11 04:28:16;;;;;;;;;;;;;;;-0.15;69.99;94978.06;5040358;28;20523;-64
2023/04/11 04:30:42;;;;;;;13.90;2.80;;;;;;;-0.46;71.13;94978.81;5039549;28;20053;-64
2023/04/11 04:33:11;;;;;;;6.30;2.17;;;;;;;0.08;69.81;94982.22;5039900;28;20082;-64
2023/04/11 04:35:36;;;;;;;16.83;3.42;;;;;;;-0.48;70.38;94988.56;5038785;28;20059;-64
2023/04/11 04:38:05;;;;;;;14.43;2.42;;;;;;;-0.45;70.99;94975.25;5039386;28;20081;-63
2023/04/11 04:40:30;;;;;;;10.85;2.70;;;;;;;-0.65;71.07;94974.25;5039676;28;20056;-64
2023/04/11 04:43:00;;;;;;;8.50;2.47;;;;;;;-0.62;71.80;94977.44;5039280;28;20091;-64
2023/04/11 04:45:26;;;;;;;10.13;2.92;;;;;;;-0.61;71.17;94980.91;5039444;28;20354;-64
2023/04/11 04:47:51;;;;;;;15.90;2.65;;;;;;;-0.67;71.97;94984.00;5039050;28;20318;-64
2023/04/11 04:50:18;;;;;;;13.35;3.10;;;;;;;-0.74;71.22;94978.44;5039161;28;20083;-64
2023/04/11 04:52:43;;;;;;;9.07;2.60;;;;;;;-0.79;71.95;94986.63;5037956;28;21341;-64
2023/04/11 04:55:08;;;;;;;10.18;2.40;;;;;;;-0.69;71.09;94989.34;5038235;28;20074;-64
2023/04/11 04:57:34;;;;;;;9.27;2.95;;;;;;;-0.61;71.50;94994.78;5039099;28;20058;-63
2023/04/11 04:59:59;;;;;;;13.82;2.80;;;;;;;-0.49;70.41;94987.75;5039451;28;20045;-64
2023/04/11 05:02:25;;;;;;;8.00;2.15;;;;;;;-0.57;70.83;94992.78;5037918;28;20091;-64
2023/04/11 05:04:52;;;;;;;7.97;2.22;;;;;;;-0.30;69.57;94991.47;5039318;28;20342;-63
2023/04/11 05:07:19;;;;;;;9.55;2.30;;;;;;;-0.39;69.39;94992.22;5038279;28;20077;-64
2023/04/11 05:09:45;;;;;;;10.77;2.65;;;;;;;-0.44;70.10;95001.28;5038699;28;20074;-64
2023/04/11 05:12:12;;;;;;;8.77;2.47;;;;;;;-0.18;69.31;95000.94;5037002;28;20102;-64
2023/04/11 05:14:37;;;;;;;6.90;2.55;;;;;;;-0.42;69.93;94998.53;5038709;28;20077;-64
2023/04/11 05:17:03;;;;;;;10.15;2.20;;;;;;;0.19;68.64;94993.59;5038588;28;20770;-64
2023/04/11 05:19:28;;;;;;;16.20;3.45;;;;;;;-0.39;69.60;95002.69;5040624;28;20075;-64
2023/04/11 05:21:54;;;;;;;9.20;2.90;;;;;;;-0.10;70.37;94994.25;5041975;28;20085;-64
2023/04/11 05:24:19;;;;;;;15.75;3.53;;;;;;;-0.10;69.81;94981.16;5042734;28;20057;-64
2023/04/11 05:26:44;;;;;;;12.98;3.05;;;;;;;0.37;68.57;94999.06;5042242;28;20083;-64
2023/04/11 05:29:10;;;;;;;11.27;2.92;;;;;;;-0.01;69.33;94998.72;5042798;28;20657;-63
2023/04/11 05:31:36;;;;;;;12.38;2.10;;;;;;;-0.15;70.74;95004.25;5036005;28;20107;-63
2023/04/11 05:34:02;;;;;;;15.75;2.40;;;;;;;0.31;69.08;95005.66;5040492;28;20193;-64
2023/04/11 05:36:27;;;;;;;12.52;2.47;;;;;;;0.08;68.78;95005.78;5041780;28;20045;-63
2023/04/11 05:38:53;;;;;;;12.63;2.80;;;;;;;0.03;67.92;95002.72;5041888;28;20069;-64
2023/04/11 05:41:18;;;;;;;7.85;2.60;;;;;;;-0.04;68.94;94996.34;5039040;28;20046;-64
2023/04/11 05:43:43;;;;;;;22.20;3.60;;;;;;;0.03;67.02;95018.44;5041165;28;20080;-63
2023/04/11 05:46:09;;;;;;;13.18;2.58;;;;;;;-0.20;68.62;95031.63;5039651;28;20082;-64
2023/04/11 05:48:35;;;;;;;9.40;2.75;;;;;;;-0.37;69.29;95021.72;5042318;28;20053;-63
2023/04/11 05:51:00;;;;;;;10.05;2.20;;;;;;;-0.32;69.58;95030.00;5041599;28;20083;-63
2023/04/11 05:53:25;;;;;;;8.45;2.47;;;;;;;0.27;68.29;95029.63;5040153;28;20467;-63
2023/04/11 05:55:51;;;;;;;8.80;2.42;;;;;;;0.47;67.57;95027.94;5039752;28;20435;-64
2023/04/11 05:58:16;;;;;;;9.50;2.30;;;;;;;0.72;66.29;95025.88;5041763;28;20112;-64
2023/04/11 06:00:42;;;;;;;8.75;2.40;;;;;;;0.67;66.49;95031.50;5040444;28;20053;-64
2023/04/11 06:03:08;;;;;;;9.20;2.88;;;;;;;0.78;66.11;95035.00;5040160;28;20083;-64
2023/04/11 06:05:33;;;;;;;8.98;2.13;;;;;;;0.29;67.49;95036.41;5039880;28;20603;-63
2023/04/11 06:08:00;;;;;;;9.88;2.08;;;;;;;0.77;66.81;95036.78;5041728;28;20132;-63
2023/04/11 06:10:26;;;;;;;13.10;2.47;;;;;;;0.70;65.89;95028.63;5037008;28;20149;-63
2023/04/11 06:12:51;;;;;;;11.00;2.80;;;;;;;0.88;65.43;95042.91;5040582;28;20048;-64
2023/04/11 06:15:17;;;;;;;10.88;2.55;;;;;;;0.87;64.99;95038.63;5039184;28;20082;-63
2023/04/11 06:17:43;;;;;;;10.57;2.65;;;;;;;0.75;64.86;95043.13;5040948;28;20136;-63
2023/04/11 06:20:09;;;;;;;7.97;2.28;;;;;;;1.10;64.36;95031.41;5040499;28;20469;-64
2023/04/11 06:22:35;;;;;;;12.27;2.67;;;;;;;0.65;65.69;95043.88;5041394;28;20097;-64
2023/04/11 06:25:00;;;;;;;8.77;2.63;;;;;;;0.36;66.05;95038.50;5038410;28;20485;-64
2023/04/11 06:27:25;;;;;;;10.48;2.58;;;;;;;0.41;65.67;95038.94;5039228;28;20065;-64
2023/04/11 06:29:51;;;;;;;6.38;2.28;;;;;;;0.63;65.52;95048.44;5040213;28;20518;-64
2023/04/11 06:32:16;;;;;;;8.20;2.30;;;;;;;0.86;64.85;95040.41;5040679;28;20051;-63
2023/04/11 06:34:42;;;;;;;11.48;2.80;;;;;;;0.90;63.24;95039.19;5040104;28;20160;-64
2023/04/11 06:37:07;;;;;;;11.65;2.42;;;;;;;1.14;63.38;95031.94;5040716;28;20266;-64
2023/04/11 06:39:33;;;;;;;8.50;2.45;;;;;;;1.04;63.59;95048.50;5039014;28;20062;-63
2023/04/11 06:41:59;;;;;;;7.70;2.33;;;;;;;0.99;63.47;95048.06;5039702;28;20076;-64
2023/04/11 06:44:24;;;;;;;15.52;3.15;;;;;;;0.87;63.31;95044.69;5040558;28;20024;-63
2023/04/11 06:46:50;;;;;;;10.82;2.92;;;;;;;1.00;64.63;95054.13;5040277;28;20076;-63
2023/04/11 06:49:17;;;;;;;8.40;2.17;;;;;;;0.97;64.67;95057.84;5039858;28;20044;-63
2023/04/11 06:51:45;;;;;;;10.57;2.50;;;;;;;0.46;67.25;95079.53;5039309;28;20047;-64
2023/04/11 06:54:11;;;;;;;9.70;3.10;;;;;;;-0.88;72.56;95068.41;5038158;28;20354;-64
2023/04/11 06:56:36;;;;;;;12.13;3.03;;;;;;;-1.24;76.25;95102.44;5039305;28;20052;-64
2023/04/11 06:59:02;;;;;;;12.93;2.70;;;;;;;-1.05;76.31;95083.56;5039275;28;20079;-64
2023/04/11 07:01:34;;;;;;;10.38;2.75;;;;;;;-0.70;75.14;95082.63;5039544;28;20061;-64
2023/04/11 07:04:00;;;;;;;11.65;2.67;;;;;;;0.01;73.25;95079.72;5036391;28;20103;-64
2023/04/11 07:06:25;;;;;;;10.68;2.80;;;;;;;-0.35;74.00;95085.19;5036491;28;20070;-64
2023/04/11 07:08:51;;;;;;;13.63;3.33;;;;;;;-0.43;73.05;95101.50;5037127;28;20044;-63
2023/04/11 07:11:16;;;;;;;11.38;3.00;;;;;;;-0.87;74.50;95093.59;5038153;28;20199;-64
2023/04/11 07:13:42;;;;;;;9.27;2.30;;;;;;;-0.16;73.77;95086.31;5039774;28;20165;-63
2023/04/11 07:16:08;;;;;;;13.32;3.05;;;;;;;0.46;70.82;95097.84;5036012;28;20512;-64
2023/04/11 07:18:33;;;;;;;12.68;3.10;;;;;;;-0.02;70.69;95090.44;5039026;28;20079;-63
2023/04/11 07:20:58;;;;;;;12.48;3.10;;;;;;;0.18;68.92;95088.81;5039850;28;20055;-63
2023/04/11 07:23:24;;;;;;;7.07;2.15;;;;;;;0.31;70.15;95093.88;5036470;28;20073;-63
2023/04/11 07:25:49;;;;;;;14.40;3.10;;;;;;;0.00;69.77;95091.97;5036945;28;20086;-64
2023/04/11 07:28:15;;;;;;;12.48;3.17;;;;;;;-0.13;68.40;95110.44;5040113;28;20055;-64
2023/04/11 07:30:46;;;;;;;12.52;3.55;;;;;;;-0.59;69.64;95096.66;5033857;28;20460;-64
2023/04/11 07:33:11;;;;;;;15.50;3.38;;;;;;;-0.58;70.73;95116.59;5039985;28;20451;-64
2023/04/11 07:35:37;;;;;;;11.45;2.97;;;;;;;-0.46;70.29;95101.75;5039493;28;20078;-63
2023/04/11 07:38:03;;;;;;;14.15;3.08;;;;;;;-0.34;69.86;95126.91;5039143;28;20568;-63
2023/04/11 07:40:29;;;;;;;16.42;3.03;;;;;;;0.04;69.65;95119.56;5039188;28;20046;-64
2023/04/11 07:42:57;;;;;;;7.65;2.88;;;;;;;0.24;68.18;95124.97;5039243;28;20095;-63
2023/04/11 07:45:25;;;;;;;10.93;3.53;;;;;;;0.29;67.73;95116.75;5037592;28;20047;-63
2023/04/11 07:47:51;;;;;;;12.27;3.90;;;;;;;0.09;67.60;95111.34;5038122;28;20048;-64
2023/04/11 07:50:16;;;;;;;12.65;3.38;;;;;;;0.35;67.10;95121.47;5037914;28;20075;-63
2023/04/11 07:52:41;;;;;;;9.25;2.53;;;;;;;0.36;67.56;95132.78;5037587;28;20055;-64
2023/04/11 07:55:07;;;;;;;10.73;3.17;;;;;;;0.28;65.25;95136.84;5034234;28;20383;-63
2023/04/11 07:57:33;;;;;;;9.13;2.55;;;;;;;0.73;65.31;95129.72;5037615;28;20080;-64
2023/04/11 07:59:58;;;;;;;11.13;3.30;;;;;;;0.04;66.38;95130.03;5039052;28;20056;-63
2023/04/11 08:02:24;;;;;;;14.60;3.38;;;;;;;0.06;65.78;95130.75;5033632;28;20086;-63
2023/04/11 08:04:49;;;;;;;9.20;2.53;;;;;;;0.38;66.28;95134.31;5039078;28;20747;-63
2023/04/11 08:07:15;;;;;;;9.88;2.78;;;;;;;1.13;64.32;95130.78;5039184;28;20070;-63
2023/04/11 08:09:41;;;;;;;8.13;2.33;;;;;;;1.96;61.92;95124.56;5035418;28;20482;-64
2023/04/11 08:12:07;;;;;;;10.70;2.63;;;;;;;2.15;59.66;95117.69;5037645;28;20046;-63
2023/04/11 08:14:32;;;;;;;16.38;3.40;;;;;;;1.97;58.78;95128.00;5035755;28;20079;-64
2023/04/11 08:16:58;;;;;;;6.53;2.60;;;;;;;1.69;60.87;95133.06;5038540;28;20087;-64
2023/04/11 08:19:23;;;;;;;12.52;3.08;;;;;;;1.16;61.70;95129.69;5038962;28;20071;-63
2023/04/11 08:21:49;;;;;;;11.18;3.03;;;;;;;1.24;62.03;95132.47;5039218;28;20048;-63
2023/04/11 08:24:14;;;;;;;13.85;3.22;;;;;;;0.77;63.30;95141.63;5039580;28;20050;-64
2023/04/11 08:26:40;;;;;;;6.28;2.15;;;;;;;0.84;64.24;95139.31;5038456;28;20616;-64
2023/04/11 08:29:09;;;;;;;7.88;2.50;;;;;;;1.05;64.37;95144.53;5033982;28;20045;-63
2023/04/11 08:31:35;;;;;;;11.68;3.22;;;;;;;0.80;64.39;95151.84;5038647;28;20502;-64
2023/04/11 08:34:01;;;;;;;8.82;2.60;;;;;;;0.87;64.37;95141.69;5039061;28;20073;-64
2023/04/11 08:36:26;;;;;;;6.95;2.40;;;;;;;1.18;63.58;95149.56;5038256;28;20132;-64
2023/04/11 08:38:54;;;;;;;10.18;3.03;;;;;;;0.73;64.40;95172.47;5037745;28;20083;-63
2023/04/11 08:41:20;;;;;;;14.13;3.67;;;;;;;0.54;64.62;95167.09;5038485;28;20053;-63
2023/04/11 08:43:46;;;;;;;19.60;3.22;;;;;;;0.26;65.37;95179.81;5038326;28;20445;-63
2023/04/11 08:46:12;;;;;;;10.18;3.22;;;;;;;0.19;65.44;95172.50;5036864;28;21209;-64
2023/04/11 08:48:38;;;;;;;8.27;2.65;;;;;;;0.62;64.69;95175.19;5036926;28;20051;-63
2023/04/11 08:51:03;;;;;;;7.95;2.70;;;;;;;1.42;63.83;95189.56;5035058;28;20113;-65
2023/04/11 08:53:29;;;;;;;9.32;3.40;;;;;;;1.39;60.71;95174.91;5034421;28;20120;-64
2023/04/11 08:55:54;;;;;;;11.85;2.88;;;;;;;1.00;61.82;95172.09;5017678;28;20395;-64
2023/04/11 08:58:20;;;;;;;9.48;2.65;;;;;;;1.66;59.26;95177.97;5042174;28;20077;-64
2023/04/11 09:00:45;;;;;;;6.40;2.35;;;;;;;1.64;57.52;95177.25;5039158;28;20051;-64
2023/04/11 09:03:11;;;;;;;12.95;2.80;;;;;;;1.43;59.73;95186.00;5041330;28;20107;-64
2023/04/11 09:05:38;;;;;;;8.55;2.63;;;;;;;1.04;57.22;95181.38;5041531;28;20444;-64
2023/04/11 09:08:08;;;;;;;7.05;2.25;;;;;;;1.08;59.47;95181.00;5041510;28;20045;-64
2023/04/11 09:10:34;;;;;;;10.25;2.80;;;;;;;1.40;56.77;95187.06;5041005;28;20078;-64
2023/04/11 09:13:01;;;;;;;7.68;2.22;;;;;;;1.63;56.42;95207.91;5040461;28;20056;-65
2023/04/11 09:15:27;;;;;;;7.10;2.20;;;;;;;1.68;54.61;95191.78;5042928;28;20068;-64
2023/04/11 09:17:53;;;;;;;7.13;2.00;;;;;;;1.85;55.71;95188.53;5038563;28;20397;-64
2023/04/11 09:20:25;;;;;;;5.03;1.80;;;;;;;2.34;53.88;95194.81;5040348;28;20052;-64
2023/04/11 09:22:51;;;;;;;6.63;2.05;;;;;;;2.30;53.94;95198.69;5040957;28;20074;-64
2023/04/11 09:25:18;;;;;;;11.73;4.57;;;;;;;2.85;52.95;95198.16;5042059;28;20418;-65
2023/04/11 09:27:43;;;;;;;7.40;1.50;;;;;;;3.21;48.97;95201.97;5042324;28;20594;-64
2023/04/11 09:30:25;;;;;;;7.75;1.85;;;;;;;3.36;47.88;95199.72;5040853;28;20067;-64
2023/04/11 09:32:52;;;;;;;6.82;2.20;;;;;;;3.18;49.43;95187.31;5039784;28;20060;-65
2023/04/11 09:35:24;;;;;;;5.03;1.80;;;;;;;3.14;47.36;95194.66;5040637;28;20063;-64
2023/04/11 09:37:52;;;;;;;2.65;1.33;;;;;;;3.21;48.69;95186.19;5041976;28;20069;-64
2023/04/11 09:40:22;;;;;;;11.90;2.20;;;;;;;2.53;50.02;95205.34;5041437;28;20040;-64
2023/04/11 09:42:48;;;;;;;3.38;1.70;;;;;;;1.89;50.36;95202.22;5039458;28;20693;-64
2023/04/11 09:45:18;;;;;;;8.00;2.45;;;;;;;1.53;51.40;95210.50;5041877;28;20197;-65
2023/04/11 09:47:44;;;;;;;7.53;2.03;;;;;;;1.74;51.60;95207.00;5041296;28;20595;-64
2023/04/11 09:50:10;;;;;;;5.95;2.05;;;;;;;1.96;53.00;95207.75;5041226;28;20072;-65
2023/04/11 09:52:35;;;;;;;7.30;1.80;;;;;;;2.14;51.20;95202.69;5040548;28;20035;-64
2023/04/11 09:55:01;;;;;;;7.57;2.00;;;;;;;2.68;48.79;95214.66;5040632;28;20469;-64
2023/04/11 09:57:29;;;;;;;8.55;2.55;;;;;;;2.38;48.58;95210.19;5039930;28;20048;-65
2023/04/11 09:59:54;;;;;;;6.05;2.38;;;;;;;1.81;46.80;95237.00;5038821;28;20036;-64
2023/04/11 10:02:20;;;;;;;5.90;1.85;;;;;;;2.47;49.12;95216.44;5032237;28;20088;-64
2023/04/11 10:04:46;;;;;;;6.43;1.95;;;;;;;2.43;48.46;95233.44;5037189;28;20083;-64
2023/04/11 10:07:13;;;;;;;10.38;2.30;;;;;;;2.08;47.25;95209.28;5021263;28;20079;-64
2023/04/11 10:09:39;;;;;;;4.30;1.90;;;;;;;2.15;48.10;95235.88;5040136;28;20057;-64
2023/04/11 10:12:05;;;;;;;6.43;1.92;;;;;;;2.56;47.08;95204.25;5039483;28;20149;-64
2023/04/11 10:14:36;;;;;;;7.00;2.30;;;;;;;2.41;46.23;95210.91;5037705;28;20071;-64
2023/04/11 10:17:20;;;;;;;4.40;1.42;;;;;;;2.59;43.61;95203.16;5041463;28;21490;-64
2023/04/11 10:19:47;;;;;;;5.43;1.70;;;;;;;2.24;45.06;95203.53;5040513;28;20185;-64
2023/04/11 10:22:41;;;;;;;4.18;1.77;;;;;;;2.51;45.44;95219.59;5040433;28;20100;-65
2023/04/11 10:25:17;;;;;;;6.82;1.90;;;;;;;2.86;46.30;95227.94;5041099;28;20033;-64
2023/04/11 10:27:52;;;;;;;5.80;2.17;;;;;;;2.74;45.45;95219.34;5040183;28;20107;-64
2023/04/11 10:30:17;;;;;;;6.30;2.00;;;;;;;3.10;46.01;95219.56;5040058;28;20153;-64
2023/04/11 10:33:10;;;;;;;5.35;2.17;;;;;;;3.25;44.76;95246.28;5038573;28;20055;-64
2023/04/11 10:36:04;;;;;;;7.63;1.60;;;;;;;3.43;44.10;95253.44;5039009;28;20073;-64
2023/04/11 10:38:36;;;;;;;3.42;1.50;;;;;;;3.40;43.91;95224.78;5039116;28;20037;-65
2023/04/11 10:41:41;;;;;;;6.80;1.70;;;;;;;3.29;42.59;95229.25;5040902;28;20036;-65
2023/04/11 10:44:22;;;;;;;8.95;1.90;;;;;;;3.14;42.06;95222.78;5039748;28;20160;-65
2023/04/11 10:46:52;;;;;;;5.90;1.52;;;;;;;3.04;42.90;95235.94;5039150;28;20087;-66
2023/04/11 10:49:31;;;;;;;7.25;2.30;;;;;;;2.71;43.34;95225.69;5040019;28;20055;-66
2023/04/11 10:52:18;;;;;;;7.97;1.65;;;;;;;2.95;42.88;95203.41;5035886;28;20071;-66
2023/04/11 10:54:45;;;;;;;8.25;1.85;;;;;;;3.16;42.60;95213.75;5037986;28;20036;-65
2023/04/11 10:57:11;;;;;;;5.65;1.73;;;;;;;3.39;41.93;95209.97;5039720;28;20389;-66
2023/04/11 10:59:48;;;;;;;7.40;2.42;;;;;;;3.23;39.35;95221.09;5038775;28;20048;-66
2023/04/11 11:02:14;;;;;;;2.72;1.50;;;;;;;3.99;41.06;95192.16;5034447;28;20077;-65
2023/04/11 11:04:39;;;;;;;2.78;1.38;;;;;;;3.62;41.75;95209.66;5036457;28;20037;-65
2023/04/11 11:07:06;;;;;;;3.83;1.80;;;;;;;3.84;40.59;95223.44;5039382;28;20070;-66
2023/04/11 11:09:33;;;;;;;4.78;1.77;;;;;;;3.76;40.01;95201.28;5038333;28;20158;-65
2023/04/11 11:12:14;;;;;;;3.90;1.58;;;;;;;4.28;40.89;95223.63;5039573;28;20481;-65
2023/04/11 11:14:43;;;;;;;7.13;1.80;;;;;;;4.11;38.92;95222.59;5036760;28;20044;-65
2023/04/11 11:17:13;;;;;;;4.97;1.88;;;;;;;4.17;40.06;95222.03;5035941;28;20043;-65
2023/04/11 11:19:45;;;;;;;8.10;1.75;;;;;;;3.73;38.71;95227.06;5040208;28;20059;-65
2023/04/11 11:22:14;;;;;;;5.93;1.85;;;;;;;3.49;40.38;95212.59;5039075;28;20072;-66
2023/04/11 11:24:39;;;;;;;6.18;1.40;;;;;;;3.41;39.66;95208.84;5038298;28;20167;-65
2023/04/11 11:27:05;;;;;;;6.15;2.08;;;;;;;4.00;40.03;95199.09;5038678;28;20440;-65
2023/04/11 11:29:36;;;;;;;5.90;1.90;;;;;;;4.24;38.24;95202.97;5038886;28;20043;-65
2023/04/11 11:32:02;;;;;;;5.22;1.92;;;;;;;4.67;38.94;95195.31;5040675;28;20050;-65
2023/04/11 11:34:28;;;;;;;5.57;1.90;;;;;;;4.89;38.90;95209.84;5038081;28;20041;-65
2023/04/11 11:36:55;;;;;;;9.57;2.13;;;;;;;4.31;36.68;95211.94;5036736;28;20564;-66